createdAt,value
2022-10-06T00:01:16.098Z,17.91
2022-10-06T00:03:45.668Z,18.02
2022-10-06T00:06:16.636Z,17.99
2022-10-06T00:08:46.229Z,18.08
2022-10-06T00:11:16.149Z,18.24
2022-10-06T00:13:44.999Z,18.17
2022-10-06T00:16:18.471Z,18.18
2022-10-06T00:18:46.924Z,18.24
2022-10-06T00:21:15.357Z,17.99
2022-10-06T00:23:43.801Z,17.83
2022-10-06T00:26:16.575Z,18.08
2022-10-06T00:28:49.081Z,17.90
2022-10-06T00:31:19.543Z,17.93
2022-10-06T00:33:50.171Z,17.91
2022-10-06T00:36:19.262Z,18.08
2022-10-06T00:38:47.868Z,17.70
2022-10-06T00:41:17.915Z,17.79
2022-10-06T00:43:53.508Z,18.00
2022-10-06T00:46:30.287Z,17.86
2022-10-06T00:49:06.208Z,17.92
2022-10-06T00:51:36.694Z,17.95
2022-10-06T00:54:05.660Z,18.07
2022-10-06T00:56:34.219Z,18.07
2022-10-06T00:59:02.598Z,17.86
2022-10-06T01:01:33.442Z,17.92
2022-10-06T01:04:09.316Z,17.92
2022-10-06T01:06:52.535Z,17.48
2022-10-06T01:09:22.850Z,17.33
2022-10-06T01:11:54.344Z,17.27
2022-10-06T01:14:24.632Z,17.47
2022-10-06T01:17:11.088Z,17.14
2022-10-06T01:19:54.403Z,17.41
2022-10-06T01:22:35.343Z,17.34
2022-10-06T01:25:08.484Z,17.53
2022-10-06T01:27:39.067Z,17.60
2022-10-06T01:30:09.927Z,16.57
2022-10-06T01:32:39.834Z,16.75
2022-10-06T01:35:11.331Z,17.29
2022-10-06T01:37:39.710Z,17.01
2022-10-06T01:40:09.425Z,17.26
2022-10-06T01:42:38.187Z,17.30
2022-10-06T01:45:08.433Z,17.51
2022-10-06T01:47:37.960Z,17.62
2022-10-06T01:50:08.061Z,17.48
2022-10-06T01:52:36.790Z,17.09
2022-10-06T01:55:06.345Z,17.05
2022-10-06T01:57:41.612Z,17.31
2022-10-06T02:00:11.616Z,17.34
2022-10-06T02:02:40.585Z,17.31
2022-10-06T02:05:10.208Z,17.41
2022-10-06T02:07:38.935Z,17.17
2022-10-06T02:10:07.660Z,17.19
2022-10-06T02:12:36.213Z,17.33
2022-10-06T02:15:06.197Z,17.32
2022-10-06T02:17:34.653Z,17.24
2022-10-06T02:20:04.400Z,17.29
2022-10-06T02:22:36.889Z,17.36
2022-10-06T02:25:05.808Z,17.34
2022-10-06T02:27:37.676Z,17.33
2022-10-06T02:30:09.668Z,17.10
2022-10-06T02:32:42.482Z,16.99
2022-10-06T02:35:13.039Z,16.82
2022-10-06T02:37:42.217Z,16.75
2022-10-06T02:40:11.721Z,16.80
2022-10-06T02:42:40.143Z,17.01
2022-10-06T02:45:09.333Z,17.02
2022-10-06T02:47:38.289Z,16.76
2022-10-06T02:50:08.441Z,16.94
2022-10-06T02:52:38.283Z,16.94
2022-10-06T02:55:07.453Z,17.03
2022-10-06T02:57:38.019Z,17.00
2022-10-06T03:00:07.747Z,16.96
2022-10-06T03:02:36.325Z,17.13
2022-10-06T03:05:04.942Z,16.95
2022-10-06T03:07:33.349Z,16.81
2022-10-06T03:10:01.760Z,16.62
2022-10-06T03:12:30.180Z,16.70
2022-10-06T03:14:58.662Z,16.65
2022-10-06T03:17:27.219Z,16.50
2022-10-06T03:19:58.720Z,16.60
2022-10-06T03:22:27.178Z,16.46
2022-10-06T03:24:55.692Z,16.46
2022-10-06T03:27:24.166Z,16.43
2022-10-06T03:29:52.593Z,16.38
2022-10-06T03:32:23.640Z,16.25
2022-10-06T03:34:53.307Z,16.30
2022-10-06T03:37:22.885Z,16.53
2022-10-06T03:39:52.749Z,16.60
2022-10-06T03:42:27.599Z,16.52
2022-10-06T03:44:56.072Z,16.46
2022-10-06T03:47:24.423Z,16.44
2022-10-06T03:49:52.809Z,16.57
2022-10-06T03:52:25.727Z,16.30
2022-10-06T03:54:54.494Z,16.37
2022-10-06T03:57:23.895Z,16.45
2022-10-06T03:59:52.404Z,16.53
2022-10-06T04:02:20.862Z,16.58
2022-10-06T04:04:49.302Z,16.46
2022-10-06T04:07:19.658Z,16.45
2022-10-06T04:09:48.024Z,16.25
2022-10-06T04:12:17.415Z,16.34
2022-10-06T04:14:45.839Z,16.18
2022-10-06T04:17:14.284Z,16.20
2022-10-06T04:19:42.739Z,16.29
2022-10-06T04:22:13.103Z,16.40
2022-10-06T04:24:42.577Z,16.35
2022-10-06T04:27:28.995Z,16.27
2022-10-06T04:29:57.842Z,16.12
2022-10-06T04:32:27.282Z,16.12
2022-10-06T04:34:55.728Z,16.05
2022-10-06T04:37:24.217Z,16.04
2022-10-06T04:39:52.600Z,15.92
2022-10-06T04:42:21.096Z,15.85
2022-10-06T04:44:49.535Z,15.98
2022-10-06T04:47:17.964Z,15.98
2022-10-06T04:49:47.366Z,15.85
2022-10-06T04:52:16.666Z,15.65
2022-10-06T04:54:45.213Z,15.64
2022-10-06T04:57:13.656Z,15.60
2022-10-06T05:00:06.800Z,15.54
2022-10-06T05:02:37.041Z,15.55
2022-10-06T05:05:06.477Z,15.56
2022-10-06T05:07:34.836Z,15.66
2022-10-06T05:10:03.651Z,15.39
2022-10-06T05:12:32.101Z,15.51
2022-10-06T05:15:00.725Z,15.69
2022-10-06T05:17:29.258Z,15.53
2022-10-06T05:19:57.694Z,15.49
2022-10-06T05:22:26.099Z,15.54
2022-10-06T05:24:54.427Z,15.49
2022-10-06T05:27:22.996Z,15.38
2022-10-06T05:29:51.560Z,15.53
2022-10-06T05:32:19.982Z,15.49
2022-10-06T05:34:48.468Z,15.48
2022-10-06T05:37:17.025Z,15.45
2022-10-06T05:39:46.625Z,15.26
2022-10-06T05:42:14.963Z,15.38
2022-10-06T05:44:43.380Z,15.46
2022-10-06T05:47:11.896Z,15.49
2022-10-06T05:49:40.356Z,15.56
2022-10-06T05:52:09.708Z,15.47
2022-10-06T05:54:38.132Z,15.40
2022-10-06T05:57:08.533Z,15.33
2022-10-06T05:59:37.025Z,15.41
2022-10-06T06:02:05.989Z,15.53
2022-10-06T06:04:34.451Z,15.48
2022-10-06T06:07:03.012Z,15.40
2022-10-06T06:09:31.493Z,15.32
2022-10-06T06:12:00.871Z,15.31
2022-10-06T06:14:49.068Z,15.29
2022-10-06T06:17:19.491Z,15.18
2022-10-06T06:19:48.026Z,15.32
2022-10-06T06:22:16.591Z,15.39
2022-10-06T06:24:44.957Z,15.33
2022-10-06T06:27:13.319Z,15.48
2022-10-06T06:29:41.735Z,15.57
2022-10-06T06:32:10.327Z,15.63
2022-10-06T06:34:40.930Z,15.56
2022-10-06T06:37:14.965Z,15.44
2022-10-06T06:39:43.893Z,15.46
2022-10-06T06:42:14.348Z,15.57
2022-10-06T06:44:42.780Z,15.46
2022-10-06T06:47:11.203Z,15.67
2022-10-06T06:49:39.664Z,15.72
2022-10-06T06:52:08.121Z,15.79
2022-10-06T06:54:36.604Z,15.65
2022-10-06T06:57:07.128Z,15.80
2022-10-06T06:59:35.635Z,15.81
2022-10-06T07:02:04.697Z,15.71
2022-10-06T07:04:33.203Z,15.80
2022-10-06T07:07:01.630Z,15.87
2022-10-06T07:09:30.058Z,16.04
2022-10-06T07:11:58.486Z,16.10
2022-10-06T07:14:26.890Z,16.13
2022-10-06T07:17:14.140Z,16.20
2022-10-06T07:19:51.258Z,16.25
2022-10-06T07:22:40.823Z,16.35
2022-10-06T07:25:26.068Z,16.37
2022-10-06T07:27:55.278Z,16.38
2022-10-06T07:30:27.060Z,16.18
2022-10-06T07:32:55.764Z,16.37
2022-10-06T07:35:25.007Z,16.52
2022-10-06T07:37:53.608Z,16.44
2022-10-06T07:40:22.424Z,16.58
2022-10-06T07:42:52.911Z,16.48
2022-10-06T07:45:40.904Z,16.56
2022-10-06T07:48:14.202Z,16.45
2022-10-06T07:50:44.219Z,16.62
2022-10-06T07:53:12.683Z,16.84
2022-10-06T07:55:44.523Z,16.49
2022-10-06T07:58:15.297Z,16.81
2022-10-06T08:00:45.959Z,16.90
2022-10-06T08:03:18.069Z,17.03
2022-10-06T08:05:49.551Z,16.99
2022-10-06T08:08:17.949Z,17.07
2022-10-06T08:10:53.256Z,17.10
2022-10-06T08:13:22.156Z,16.98
2022-10-06T08:15:52.362Z,17.24
2022-10-06T08:18:44.425Z,17.34
2022-10-06T08:21:18.904Z,17.48
2022-10-06T08:23:48.981Z,17.33
2022-10-06T08:26:19.183Z,17.46
2022-10-06T08:28:51.396Z,17.60
2022-10-06T08:31:22.098Z,17.46
2022-10-06T08:33:57.300Z,17.56
2022-10-06T08:36:31.435Z,17.48
2022-10-06T08:39:01.331Z,17.56
2022-10-06T08:41:32.455Z,17.81
2022-10-06T08:44:17.969Z,17.23
2022-10-06T08:47:00.748Z,17.70
2022-10-06T08:49:38.569Z,17.47
2022-10-06T08:52:08.004Z,17.64
2022-10-06T08:55:06.986Z,17.81
2022-10-06T08:57:47.139Z,17.99
2022-10-06T09:00:21.178Z,18.23
2022-10-06T09:02:50.870Z,17.64
2022-10-06T09:05:28.122Z,17.90
2022-10-06T09:08:37.888Z,17.40
2022-10-06T09:11:29.546Z,17.62
2022-10-06T09:14:03.870Z,17.98
2022-10-06T09:16:38.969Z,18.17
2022-10-06T09:19:18.156Z,17.97
2022-10-06T09:21:51.508Z,17.14
2022-10-06T09:24:44.812Z,16.46
2022-10-06T09:27:23.913Z,17.17
2022-10-06T09:29:53.232Z,17.33
2022-10-06T09:32:22.973Z,16.80
2022-10-06T09:34:55.862Z,16.78
2022-10-06T09:37:24.313Z,16.54
2022-10-06T09:39:54.133Z,17.43
2022-10-06T09:42:35.472Z,17.96
2022-10-06T09:45:25.760Z,17.80
2022-10-06T09:47:54.163Z,17.70
2022-10-06T09:50:24.958Z,17.67
2022-10-06T09:53:08.437Z,18.11
2022-10-06T09:55:36.740Z,18.26
2022-10-06T09:58:29.524Z,17.59
2022-10-06T10:01:00.889Z,18.51
2022-10-06T10:04:02.016Z,18.91
2022-10-06T10:06:35.068Z,18.70
2022-10-06T10:09:22.793Z,19.03
2022-10-06T10:12:27.534Z,18.80
2022-10-06T10:15:25.940Z,18.61
2022-10-06T10:17:56.964Z,18.46
2022-10-06T10:20:28.155Z,18.04
2022-10-06T10:22:59.577Z,19.06
2022-10-06T10:26:04.382Z,18.78
2022-10-06T10:28:48.138Z,19.13
2022-10-06T10:31:33.669Z,19.08
2022-10-06T10:34:27.342Z,19.42
2022-10-06T10:37:17.054Z,18.13
2022-10-06T10:39:54.855Z,18.74
2022-10-06T10:42:33.410Z,18.38
2022-10-06T10:45:04.476Z,18.82
2022-10-06T10:47:43.445Z,18.93
2022-10-06T10:50:24.561Z,19.26
2022-10-06T10:52:58.700Z,19.53
2022-10-06T10:55:37.275Z,19.32
2022-10-06T10:58:20.459Z,19.24
2022-10-06T11:00:55.792Z,19.60
2022-10-06T11:03:24.250Z,19.08
2022-10-06T11:06:21.246Z,19.35
2022-10-06T11:09:03.266Z,19.53
2022-10-06T11:11:38.876Z,19.57
2022-10-06T11:14:40.267Z,19.48
2022-10-06T11:17:29.717Z,19.72
2022-10-06T11:20:15.208Z,19.81
2022-10-06T11:22:56.819Z,20.14
2022-10-06T11:25:44.310Z,19.75
2022-10-06T11:28:26.424Z,17.99
2022-10-06T11:31:00.933Z,18.08
2022-10-06T11:33:37.093Z,17.34
2022-10-06T11:36:13.713Z,17.55
2022-10-06T11:38:47.465Z,17.65
2022-10-06T11:41:34.416Z,18.76
2022-10-06T11:44:14.803Z,19.69
2022-10-06T11:46:51.425Z,19.82
2022-10-06T11:49:28.823Z,20.08
2022-10-06T11:52:08.562Z,19.38
2022-10-06T11:54:40.261Z,19.84
2022-10-06T11:57:30.257Z,19.82
2022-10-06T12:00:02.081Z,19.97
2022-10-06T12:02:30.698Z,19.76
2022-10-06T12:05:54.746Z,19.92
2022-10-06T12:08:12.558Z,19.59
2022-10-06T12:10:49.231Z,19.96
2022-10-06T12:14:26.611Z,19.83
2022-10-06T12:19:52.149Z,19.39
2022-10-06T12:22:37.312Z,20.43
2022-10-06T12:25:24.799Z,20.53
2022-10-06T12:28:15.127Z,20.38
2022-10-06T12:31:15.836Z,20.52
2022-10-06T12:33:47.224Z,20.87
2022-10-06T12:36:29.732Z,20.21
2022-10-06T12:39:01.731Z,19.83
2022-10-06T12:41:59.426Z,18.93
2022-10-06T12:44:44.873Z,19.34
2022-10-06T12:47:21.965Z,19.83
2022-10-06T12:50:27.211Z,20.76
2022-10-06T12:53:05.468Z,20.62
2022-10-06T12:55:51.528Z,20.80
2022-10-06T12:58:26.850Z,20.24
2022-10-06T13:01:01.150Z,20.29
2022-10-06T13:03:30.543Z,19.23
2022-10-06T13:06:03.202Z,18.52
2022-10-06T13:08:34.767Z,18.83
2022-10-06T13:11:15.520Z,19.51
2022-10-06T13:13:52.523Z,19.80
2022-10-06T13:16:31.095Z,20.61
2022-10-06T13:19:01.193Z,20.63
2022-10-06T13:21:30.310Z,20.96
2022-10-06T13:23:59.053Z,21.10
2022-10-06T13:26:32.292Z,20.07
2022-10-06T13:29:01.089Z,20.24
2022-10-06T13:31:31.959Z,19.97
2022-10-06T13:34:12.287Z,20.45
2022-10-06T13:36:43.972Z,18.83
2022-10-06T13:39:17.250Z,20.02
2022-10-06T13:41:57.579Z,19.96
2022-10-06T13:44:30.985Z,20.47
2022-10-06T13:47:03.723Z,20.50
2022-10-06T13:49:47.021Z,20.73
2022-10-06T13:52:19.005Z,20.53
2022-10-06T13:54:55.660Z,20.93
2022-10-06T13:57:43.535Z,20.20
2022-10-06T14:00:12.241Z,19.96
2022-10-06T14:02:57.586Z,20.08
2022-10-06T14:05:27.820Z,19.40
2022-10-06T14:08:16.057Z,20.51
2022-10-06T14:10:51.839Z,20.83
2022-10-06T14:13:27.899Z,20.63
2022-10-06T14:16:06.209Z,20.78
2022-10-06T14:18:43.765Z,20.74
2022-10-06T14:21:31.045Z,21.05
2022-10-06T14:24:04.756Z,20.81
2022-10-06T14:26:36.195Z,20.82
2022-10-06T14:29:05.514Z,19.97
2022-10-06T14:31:34.615Z,19.40
2022-10-06T14:34:04.680Z,19.20
2022-10-06T14:36:36.856Z,20.27
2022-10-06T14:39:07.551Z,20.68
2022-10-06T14:41:36.043Z,20.68
2022-10-06T14:44:08.570Z,20.57
2022-10-06T14:46:38.792Z,20.55
2022-10-06T14:49:08.635Z,20.48
2022-10-06T14:51:38.600Z,19.15
2022-10-06T14:54:08.480Z,19.58
2022-10-06T14:56:39.018Z,18.86
2022-10-06T14:59:10.320Z,19.31
2022-10-06T15:01:39.971Z,20.21
2022-10-06T15:04:12.186Z,20.26
2022-10-06T15:07:00.090Z,19.61
2022-10-06T15:09:30.861Z,18.76
2022-10-06T15:11:59.947Z,19.92
2022-10-06T15:14:29.490Z,20.45
2022-10-06T15:17:01.206Z,20.45
2022-10-06T15:19:29.681Z,20.58
2022-10-06T15:21:58.184Z,20.58
2022-10-06T15:24:26.693Z,20.59
2022-10-06T15:27:13.324Z,20.01
2022-10-06T15:29:42.484Z,19.09
2022-10-06T15:32:10.892Z,19.11
2022-10-06T15:34:39.332Z,19.53
2022-10-06T15:37:08.782Z,19.96
2022-10-06T15:39:37.762Z,19.78
2022-10-06T15:42:08.655Z,19.83
2022-10-06T15:44:37.196Z,20.18
2022-10-06T15:47:07.191Z,20.00
2022-10-06T15:49:40.328Z,20.43
2022-10-06T15:52:11.894Z,20.47
2022-10-06T15:54:41.366Z,20.57
2022-10-06T15:57:15.198Z,20.44
2022-10-06T15:59:48.644Z,20.44
2022-10-06T16:02:19.711Z,20.23
2022-10-06T16:04:55.297Z,19.71
2022-10-06T16:07:23.931Z,19.79
2022-10-06T16:09:53.075Z,19.82
2022-10-06T16:12:22.863Z,19.87
2022-10-06T16:14:58.512Z,20.01
2022-10-06T16:17:26.927Z,19.65
2022-10-06T16:19:55.513Z,19.82
2022-10-06T16:22:23.956Z,19.88
2022-10-06T16:24:52.272Z,19.86
2022-10-06T16:27:21.100Z,19.85
2022-10-06T16:29:49.531Z,19.85
2022-10-06T16:32:18.040Z,19.68
2022-10-06T16:34:50.417Z,19.73
2022-10-06T16:37:18.976Z,19.82
2022-10-06T16:39:47.514Z,19.71
2022-10-06T16:42:18.000Z,19.61
2022-10-06T16:44:46.545Z,19.67
2022-10-06T16:47:15.032Z,19.89
2022-10-06T16:49:43.546Z,19.79
2022-10-06T16:52:12.999Z,19.89
2022-10-06T16:54:43.443Z,20.00
2022-10-06T16:57:12.143Z,19.91
2022-10-06T16:59:44.490Z,19.89
2022-10-06T17:02:15.137Z,19.81
2022-10-06T17:04:43.573Z,19.83
2022-10-06T17:07:12.998Z,19.82
2022-10-06T17:09:55.871Z,19.83
2022-10-06T17:12:30.002Z,19.68
2022-10-06T17:14:58.353Z,19.48
2022-10-06T17:17:26.865Z,19.55
2022-10-06T17:19:55.373Z,19.58
2022-10-06T17:22:23.828Z,19.55
2022-10-06T17:24:52.197Z,19.50
2022-10-06T17:27:20.605Z,19.44
2022-10-06T17:29:49.169Z,19.36
2022-10-06T17:32:18.037Z,19.18
2022-10-06T17:34:46.545Z,19.21
2022-10-06T17:37:17.272Z,19.23
2022-10-06T17:39:47.277Z,19.03
2022-10-06T17:42:16.094Z,19.07
2022-10-06T17:44:45.510Z,19.11
2022-10-06T17:47:14.869Z,19.10
2022-10-06T17:49:44.222Z,19.05
2022-10-06T17:52:12.569Z,18.99
2022-10-06T17:54:41.472Z,18.96
2022-10-06T17:57:10.031Z,18.89
2022-10-06T17:59:39.044Z,18.67
2022-10-06T18:02:12.151Z,18.65
2022-10-06T18:04:40.509Z,18.60
2022-10-06T18:07:10.181Z,18.63
2022-10-06T18:09:40.220Z,18.65
2022-10-06T18:12:10.358Z,18.62
2022-10-06T18:14:38.721Z,18.61
2022-10-06T18:17:07.166Z,18.63
2022-10-06T18:19:36.110Z,18.67
2022-10-06T18:22:10.319Z,18.60
2022-10-06T18:24:39.973Z,18.42
2022-10-06T18:27:08.702Z,18.30
2022-10-06T18:29:38.563Z,18.27
2022-10-06T18:37:44.634Z,18.24
2022-10-06T18:40:14.807Z,18.11
2022-10-06T18:42:43.424Z,17.88
2022-10-06T18:45:33.170Z,17.89
2022-10-06T18:48:22.617Z,17.87
2022-10-06T18:51:03.535Z,17.83
2022-10-06T18:53:35.653Z,17.71
2022-10-06T18:56:08.085Z,17.49
2022-10-06T18:58:41.311Z,17.32
2022-10-06T19:01:11.087Z,17.25
2022-10-06T19:03:40.185Z,17.34
2022-10-06T19:06:08.741Z,17.58
2022-10-06T19:08:37.232Z,17.67
2022-10-06T19:11:25.537Z,17.56
2022-10-06T19:13:56.160Z,17.33
2022-10-06T19:16:24.778Z,17.10
2022-10-06T19:18:53.166Z,16.88
2022-10-06T19:21:21.589Z,16.98
2022-10-06T19:23:50.414Z,16.81
2022-10-06T19:26:22.624Z,16.68
2022-10-06T19:28:51.129Z,16.67
2022-10-06T19:31:20.135Z,16.65
2022-10-06T19:33:48.925Z,16.63
2022-10-06T19:36:17.400Z,16.67
2022-10-06T19:38:45.736Z,16.65
2022-10-06T19:41:33.439Z,16.67
2022-10-06T19:44:02.988Z,16.75
2022-10-06T19:46:31.615Z,16.69
2022-10-06T19:49:05.517Z,16.55
2022-10-06T19:51:34.940Z,16.42
2022-10-06T19:54:04.380Z,16.28
2022-10-06T19:56:33.142Z,16.49
2022-10-06T19:59:02.922Z,16.38
2022-10-06T20:01:31.656Z,16.31
2022-10-06T20:04:02.573Z,16.57
2022-10-06T20:06:32.083Z,16.69
2022-10-06T20:09:06.558Z,16.71
2022-10-06T20:11:37.382Z,16.47
2022-10-06T20:14:10.416Z,16.22
2022-10-06T20:16:41.109Z,16.10
2022-10-06T20:19:11.409Z,16.15
2022-10-06T20:21:40.151Z,16.20
2022-10-06T20:24:13.023Z,15.98
2022-10-06T20:26:42.572Z,16.12
2022-10-06T20:29:12.866Z,16.24
2022-10-06T20:31:47.213Z,16.36
2022-10-06T20:34:18.843Z,16.16
2022-10-06T20:36:50.682Z,16.08
2022-10-06T20:39:42.161Z,15.91
2022-10-06T20:42:15.000Z,15.92
2022-10-06T20:44:44.201Z,15.92
2022-10-06T20:47:13.433Z,16.03
2022-10-06T20:49:44.964Z,16.15
2022-10-06T20:52:16.329Z,15.97
2022-10-06T20:54:44.788Z,15.87
2022-10-06T20:57:13.348Z,15.76
2022-10-06T20:59:41.807Z,15.70
2022-10-06T21:02:10.983Z,15.75
2022-10-06T21:04:43.363Z,15.75
2022-10-06T21:07:12.338Z,15.71
2022-10-06T21:09:41.862Z,15.67
2022-10-06T21:12:11.352Z,15.79
2022-10-06T21:14:42.210Z,15.79
2022-10-06T21:17:10.672Z,15.73
2022-10-06T21:19:39.149Z,15.64
2022-10-06T21:22:07.549Z,15.65
2022-10-06T21:24:37.971Z,15.67
2022-10-06T21:27:10.477Z,15.86
2022-10-06T21:29:38.983Z,15.83
2022-10-06T21:32:09.524Z,15.71
2022-10-06T21:34:39.243Z,15.69
2022-10-06T21:37:07.784Z,15.66
2022-10-06T21:39:36.327Z,15.55
2022-10-06T21:42:04.860Z,15.47
2022-10-06T21:44:33.356Z,15.53
2022-10-06T21:47:02.611Z,15.53
2022-10-06T21:49:31.260Z,15.49
2022-10-06T21:52:04.697Z,15.42
2022-10-06T21:54:33.215Z,15.58
2022-10-06T21:57:01.858Z,15.74
2022-10-06T21:59:31.291Z,15.76
2022-10-06T22:01:59.838Z,15.52
2022-10-06T22:04:28.322Z,15.45
2022-10-06T22:06:56.722Z,15.44
2022-10-06T22:09:25.069Z,15.43
2022-10-06T22:11:53.457Z,15.44
2022-10-06T22:14:21.833Z,15.32
2022-10-06T22:16:50.245Z,15.25
2022-10-06T22:19:19.881Z,15.44
2022-10-06T22:21:48.574Z,15.30
2022-10-06T22:24:20.395Z,15.37
2022-10-06T22:26:49.539Z,15.22
2022-10-06T22:29:19.610Z,15.07
2022-10-06T22:31:48.815Z,15.07
2022-10-06T22:34:19.864Z,15.11
2022-10-06T22:36:48.538Z,15.03
2022-10-06T22:39:17.038Z,15.07
2022-10-06T22:41:45.608Z,15.15
2022-10-06T22:44:14.051Z,15.34
2022-10-06T22:46:42.608Z,15.45
2022-10-06T22:49:11.018Z,15.36
2022-10-06T22:51:39.389Z,15.39
2022-10-06T22:54:08.191Z,15.55
2022-10-06T22:56:36.574Z,15.46
2022-10-06T22:59:05.115Z,15.49
2022-10-06T23:01:33.560Z,15.36
2022-10-06T23:04:01.981Z,15.25
2022-10-06T23:06:38.413Z,15.49
2022-10-06T23:09:41.753Z,15.53
2022-10-06T23:12:10.153Z,15.30
2022-10-06T23:14:38.752Z,15.39
2022-10-06T23:17:07.299Z,15.48
2022-10-06T23:19:35.658Z,15.57
2022-10-06T23:22:04.133Z,15.55
2022-10-06T23:24:32.706Z,15.62
2022-10-06T23:27:04.302Z,15.53
2022-10-06T23:29:33.857Z,15.56
2022-10-06T23:32:02.379Z,15.39
2022-10-06T23:34:30.851Z,15.38
2022-10-06T23:37:00.379Z,15.45
2022-10-06T23:39:28.731Z,15.35
2022-10-06T23:41:57.140Z,15.35
2022-10-06T23:44:25.778Z,15.40
2022-10-06T23:46:54.202Z,15.54
2022-10-06T23:49:22.638Z,15.49
2022-10-06T23:51:51.064Z,15.46
2022-10-06T23:54:19.927Z,15.43
2022-10-06T23:56:51.246Z,15.35
2022-10-06T23:59:21.167Z,15.38
